Time;durP1;ratioP1;P1;durP2;ratioP2;P2;SDS_P1;SDS_P2;PMS_P1;PMS_P2;Temp;Humidity;BMP_temperature;BMP_pressure;BME280_temperature;BME280_humidity;BME280_pressure;Samples;Min_cycle;Max_cycle;Signal;HPM_P1;HPM_P2
2022/09/12 00:00:43;;;;;;;15.75;11.18;;;15.50;99.90;;;;;;5098521;28;20039;-67
2022/09/12 00:03:10;;;;;;;11.02;9.90;;;15.50;99.90;;;;;;5095471;28;20542;-68
2022/09/12 00:05:43;;;;;;;12.60;10.63;;;15.40;99.90;;;;;;5104159;28;20063;-68
2022/09/12 00:08:10;;;;;;;12.52;9.93;;;15.40;99.90;;;;;;5080553;28;20036;-70
2022/09/12 00:10:38;;;;;;;15.15;11.23;;;15.40;99.90;;;;;;5082840;28;20043;-68
2022/09/12 00:13:06;;;;;;;18.25;11.15;;;15.40;99.90;;;;;;5100227;28;20089;-67
2022/09/12 00:15:40;;;;;;;12.00;10.38;;;15.30;99.90;;;;;;5101464;28;20040;-67
2022/09/12 00:18:08;;;;;;;12.68;10.60;;;15.30;99.90;;;;;;5094184;28;20052;-67
2022/09/12 00:20:35;;;;;;;18.35;12.07;;;15.30;99.90;;;;;;5096042;28;20039;-67
2022/09/12 00:23:01;;;;;;;12.85;11.02;;;15.30;99.90;;;;;;5093951;28;20086;-67
2022/09/12 00:25:30;;;;;;;15.52;11.05;;;15.30;99.90;;;;;;5103793;28;20085;-67
2022/09/12 00:27:57;;;;;;;13.38;10.98;;;15.30;99.90;;;;;;5096197;28;20044;-68
2022/09/12 00:30:24;;;;;;;17.85;11.23;;;15.30;99.90;;;;;;5098945;28;20047;-67
2022/09/12 00:32:53;;;;;;;13.25;11.15;;;15.20;99.90;;;;;;5085635;28;20035;-67
2022/09/12 00:35:20;;;;;;;14.45;11.20;;;15.20;99.90;;;;;;5106523;28;20104;-68
2022/09/12 00:37:47;;;;;;;14.50;11.20;;;15.20;99.90;;;;;;5105070;28;20048;-68
2022/09/12 00:40:14;;;;;;;13.25;10.73;;;15.20;99.90;;;;;;5109600;28;20044;-68
2022/09/12 00:42:41;;;;;;;11.73;10.45;;;15.20;99.90;;;;;;5103501;28;20058;-67
2022/09/12 00:45:17;;;;;;;12.55;11.10;;;15.20;99.90;;;;;;5095783;28;20068;-67
2022/09/12 00:47:43;;;;;;;12.57;11.18;;;15.20;99.90;;;;;;5090203;28;20039;-67
2022/09/12 00:50:12;;;;;;;13.82;10.95;;;15.20;99.90;;;;;;5095263;28;20051;-68
2022/09/12 00:52:44;;;;;;;13.88;11.93;;;15.20;99.90;;;;;;5100936;28;20040;-68
2022/09/12 00:55:21;;;;;;;16.15;12.60;;;15.30;99.90;;;;;;5101549;28;20044;-67
2022/09/12 00:58:08;;;;;;;18.35;13.85;;;15.40;99.90;;;;;;5095843;28;20612;-68
2022/09/12 01:00:35;;;;;;;16.25;14.57;;;15.50;99.90;;;;;;5073753;28;20108;-68
2022/09/12 01:03:08;;;;;;;18.45;15.45;;;15.60;99.90;;;;;;5087638;28;20036;-68
2022/09/12 01:05:36;;;;;;;18.50;15.10;;;15.70;99.90;;;;;;5075803;28;20566;-68
2022/09/12 01:08:03;;;;;;;17.70;15.85;;;15.80;99.90;;;;;;5109118;28;20109;-67
2022/09/12 01:10:31;;;;;;;18.27;15.63;;;15.90;99.90;;;;;;5095312;28;20044;-68
2022/09/12 01:12:58;;;;;;;18.02;14.45;;;16.00;99.90;;;;;;5092691;28;20051;-68
2022/09/12 01:15:25;;;;;;;17.05;14.48;;;16.10;99.90;;;;;;5095055;28;20043;-67
2022/09/12 01:18:19;;;;;;;17.55;14.98;;;16.20;99.90;;;;;;5113058;28;20490;-68
2022/09/12 01:21:01;;;;;;;16.20;14.02;;;16.30;99.90;;;;;;5104204;28;20048;-68
2022/09/12 01:23:53;;;;;;;13.70;12.35;;;16.40;99.90;;;;;;5097452;28;20471;-68
2022/09/12 01:26:48;;;;;;;18.88;14.52;;;16.50;99.90;;;;;;5093195;28;20044;-68
2022/09/12 01:29:44;;;;;;;18.98;13.65;;;16.60;99.90;;;;;;5085717;28;20052;-68
2022/09/12 01:32:26;;;;;;;13.63;11.23;;;16.60;99.90;;;;;;5092483;28;20425;-68
2022/09/12 01:35:06;;;;;;;14.40;12.10;;;16.60;99.90;;;;;;5098689;28;20040;-68
2022/09/12 01:38:02;;;;;;;14.65;11.90;;;16.70;99.90;;;;;;5109348;28;20093;-68
2022/09/12 01:40:55;;;;;;;12.75;11.45;;;16.70;99.90;;;;;;5104983;28;20551;-67
2022/09/12 01:43:37;;;;;;;11.18;9.68;;;16.70;99.90;;;;;;5101197;28;20089;-67
2022/09/12 01:46:14;;;;;;;11.68;9.88;;;16.70;99.90;;;;;;5098478;28;20043;-68
2022/09/12 01:48:57;;;;;;;13.60;9.93;;;16.80;99.90;;;;;;5106360;28;20097;-67
2022/09/12 01:51:25;;;;;;;14.35;10.68;;;16.80;99.90;;;;;;5091678;28;20043;-68
2022/09/12 01:53:56;;;;;;;11.27;10.13;;;16.90;99.90;;;;;;5096337;28;20364;-68
2022/09/12 01:56:28;;;;;;;13.43;9.07;;;16.90;99.90;;;;;;5093369;28;20386;-68
2022/09/12 01:59:11;;;;;;;10.00;8.98;;;16.90;99.90;;;;;;5082628;28;20076;-68
2022/09/12 02:01:50;;;;;;;9.55;8.43;;;17.00;99.90;;;;;;5106658;28;20036;-68
2022/09/12 02:04:19;;;;;;;10.48;9.48;;;17.00;99.90;;;;;;5102715;28;20067;-68
2022/09/12 02:07:13;;;;;;;9.65;8.65;;;17.00;99.90;;;;;;5086916;28;20573;-68
2022/09/12 02:09:46;;;;;;;10.20;9.18;;;17.10;99.90;;;;;;5088820;28;20035;-67
2022/09/12 02:12:14;;;;;;;13.45;9.90;;;17.10;99.90;;;;;;5078296;28;20566;-67
2022/09/12 02:14:44;;;;;;;10.13;8.52;;;17.20;99.90;;;;;;5083057;28;20040;-68
2022/09/12 02:17:17;;;;;;;10.25;7.90;;;17.20;99.90;;;;;;5098838;28;20102;-67
2022/09/12 02:19:47;;;;;;;12.07;7.85;;;17.20;99.90;;;;;;5083932;28;20074;-68
2022/09/12 02:22:16;;;;;;;9.40;8.45;;;17.30;99.90;;;;;;5062625;28;20105;-68
2022/09/12 02:24:45;;;;;;;9.15;7.30;;;17.30;99.90;;;;;;5099694;28;20032;-68
2022/09/12 02:27:14;;;;;;;10.95;8.35;;;17.30;99.90;;;;;;5079248;28;20396;-68
2022/09/12 02:29:43;;;;;;;9.43;6.95;;;17.30;99.90;;;;;;5068135;28;20101;-68
2022/09/12 02:32:41;;;;;;;10.95;7.55;;;17.40;99.90;;;;;;5099904;28;20060;-68
2022/09/12 02:35:32;;;;;;;9.38;7.57;;;17.40;99.90;;;;;;5099034;28;20035;-69
2022/09/12 02:38:09;;;;;;;8.45;7.38;;;17.40;99.90;;;;;;5100024;28;20085;-68
2022/09/12 02:40:36;;;;;;;8.85;7.75;;;17.40;99.90;;;;;;5103145;28;20039;-72
2022/09/12 02:43:03;;;;;;;9.52;7.68;;;17.40;99.90;;;;;;5101714;28;20044;-68
2022/09/12 02:45:33;;;;;;;10.25;7.70;;;17.40;99.90;;;;;;5093849;28;21822;-68
2022/09/12 02:48:15;;;;;;;9.68;8.13;;;17.40;99.90;;;;;;5103136;28;20047;-68
2022/09/12 02:50:42;;;;;;;9.15;7.43;;;17.40;99.90;;;;;;5080318;28;20109;-68
2022/09/12 02:53:10;;;;;;;9.40;8.40;;;17.40;99.90;;;;;;5111586;28;20521;-67
2022/09/12 02:55:37;;;;;;;9.93;7.07;;;17.30;99.90;;;;;;5083557;28;20032;-67
2022/09/12 02:58:07;;;;;;;10.65;7.82;;;17.30;99.90;;;;;;5104245;28;20097;-68
2022/09/12 03:00:35;;;;;;;;;;;17.20;99.90;;;;;;5113467;28;20062;-68
2022/09/12 03:03:23;;;;;;;9.10;7.25;;;17.20;99.90;;;;;;5100394;28;19962;-68
2022/09/12 03:06:10;;;;;;;8.32;7.22;;;17.10;99.90;;;;;;5096603;28;20051;-68
2022/09/12 03:08:46;;;;;;;8.32;7.05;;;17.10;99.90;;;;;;5066207;28;20044;-68
2022/09/12 03:11:28;;;;;;;10.65;8.18;;;17.00;99.90;;;;;;5100361;28;20467;-68
2022/09/12 03:13:58;;;;;;;8.55;7.32;;;17.00;99.90;;;;;;5103891;28;20056;-67
2022/09/12 03:16:43;;;;;;;7.75;6.50;;;16.90;99.90;;;;;;5097701;28;20089;-68
2022/09/12 03:19:40;;;;;;;10.55;7.53;;;16.90;99.90;;;;;;5095931;28;20078;-68
2022/09/12 03:22:27;;;;;;;7.70;6.15;;;16.90;99.90;;;;;;5090467;28;20084;-68
2022/09/12 03:25:05;;;;;;;7.50;6.43;;;16.90;99.90;;;;;;5088095;28;20074;-68
2022/09/12 03:27:42;;;;;;;11.00;5.55;;;16.90;99.90;;;;;;5095867;28;20052;-67
2022/09/12 03:30:11;;;;;;;8.70;6.47;;;16.90;99.90;;;;;;5102798;28;20039;-68
2022/09/12 03:32:42;;;;;;;6.30;5.45;;;16.90;99.90;;;;;;5092553;28;20480;-68
2022/09/12 03:35:10;;;;;;;7.63;5.85;;;16.90;99.90;;;;;;5105325;28;20048;-68
2022/09/12 03:37:37;;;;;;;6.72;5.90;;;16.90;99.90;;;;;;5084123;28;20032;-68
2022/09/12 03:40:05;;;;;;;10.05;6.22;;;16.80;99.90;;;;;;5079154;28;20072;-68
2022/09/12 03:42:31;;;;;;;8.45;5.50;;;16.90;99.90;;;;;;5102072;28;20040;-68
2022/09/12 03:44:58;;;;;;;6.43;5.15;;;16.90;99.90;;;;;;5106988;28;20079;-68
2022/09/12 03:47:25;;;;;;;7.35;6.30;;;16.90;99.90;;;;;;5108675;28;20040;-68
2022/09/12 03:49:52;;;;;;;9.10;6.43;;;16.90;99.90;;;;;;5100461;28;20379;-67
2022/09/12 03:52:19;;;;;;;6.78;5.68;;;16.80;99.90;;;;;;5102556;28;20048;-68
2022/09/12 03:54:46;;;;;;;7.45;5.28;;;16.80;99.90;;;;;;5108690;28;20089;-69
2022/09/12 03:57:13;;;;;;;6.97;6.20;;;16.80;99.90;;;;;;5100995;28;20480;-67
2022/09/12 03:59:39;;;;;;;6.50;5.30;;;16.80;99.90;;;;;;5104189;28;20039;-68
2022/09/12 04:02:08;;;;;;;8.23;6.45;;;16.80;99.90;;;;;;5104961;28;20043;-68
2022/09/12 04:04:35;;;;;;;8.68;6.07;;;16.80;99.90;;;;;;5102655;28;20039;-68
2022/09/12 04:07:02;;;;;;;7.80;5.78;;;16.80;99.90;;;;;;5101906;28;20094;-68
2022/09/12 04:09:29;;;;;;;7.72;6.53;;;16.80;99.90;;;;;;5095450;28;20052;-68
2022/09/12 04:11:56;;;;;;;7.85;6.05;;;16.80;99.90;;;;;;5101040;28;20044;-68
2022/09/12 04:14:23;;;;;;;10.25;6.45;;;16.80;99.90;;;;;;5104874;28;20040;-68
2022/09/12 04:16:50;;;;;;;9.20;6.20;;;16.80;99.90;;;;;;5106555;28;20048;-68
2022/09/12 04:19:17;;;;;;;10.68;5.70;;;16.80;99.90;;;;;;5098708;28;20050;-68
2022/09/12 04:21:44;;;;;;;9.85;5.57;;;16.80;99.90;;;;;;5100956;28;20066;-67
2022/09/12 04:24:11;;;;;;;7.53;5.50;;;16.70;99.90;;;;;;5101557;28;20187;-67
2022/09/12 04:26:38;;;;;;;9.93;6.82;;;16.70;99.90;;;;;;5103414;28;20491;-68
2022/09/12 04:29:05;;;;;;;9.77;6.53;;;16.70;99.90;;;;;;5098000;28;20043;-68
2022/09/12 04:31:32;;;;;;;10.65;6.55;;;16.70;99.90;;;;;;5105032;28;20048;-67
2022/09/12 04:33:59;;;;;;;9.88;6.90;;;16.70;99.90;;;;;;5067690;28;20052;-67
2022/09/12 04:36:27;;;;;;;11.73;6.22;;;16.70;99.90;;;;;;5104412;28;20066;-68
2022/09/12 04:38:54;;;;;;;8.02;6.57;;;16.70;99.90;;;;;;5084388;28;20525;-68
2022/09/12 04:41:22;;;;;;;10.63;6.70;;;16.70;99.90;;;;;;5089605;28;20036;-68
2022/09/12 04:43:54;;;;;;;7.70;6.28;;;16.70;99.90;;;;;;5101578;28;20043;-68
2022/09/12 04:46:21;;;;;;;7.68;5.90;;;16.70;99.90;;;;;;5085061;28;20485;-68
2022/09/12 04:48:48;;;;;;;7.28;5.95;;;16.60;99.90;;;;;;5096973;28;20085;-68
2022/09/12 04:51:22;;;;;;;7.30;6.57;;;16.60;99.90;;;;;;5091817;28;20040;-68
2022/09/12 04:53:50;;;;;;;8.77;6.50;;;16.60;99.90;;;;;;5096769;28;20044;-68
2022/09/12 04:56:18;;;;;;;9.47;6.03;;;16.60;99.90;;;;;;5099268;28;20043;-68
2022/09/12 04:58:45;;;;;;;11.10;6.85;;;16.60;99.90;;;;;;5099971;28;20051;-68
2022/09/12 05:01:14;;;;;;;6.70;5.55;;;16.60;99.90;;;;;;5083563;28;20127;-68
2022/09/12 05:03:44;;;;;;;13.25;6.30;;;16.50;99.90;;;;;;5096589;28;20035;-68
2022/09/12 05:06:22;;;;;;;10.30;6.55;;;16.60;99.90;;;;;;5104814;28;20136;-68
2022/09/12 05:08:50;;;;;;;7.00;6.37;;;16.60;99.90;;;;;;5083265;28;20101;-68
2022/09/12 05:11:21;;;;;;;7.63;6.20;;;16.60;99.90;;;;;;5084924;28;20035;-67
2022/09/12 05:13:53;;;;;;;9.07;6.18;;;16.60;99.90;;;;;;5097798;28;20458;-67
2022/09/12 05:16:21;;;;;;;8.55;6.00;;;16.60;99.90;;;;;;5097894;28;20475;-68
2022/09/12 05:18:49;;;;;;;9.93;6.57;;;16.60;99.90;;;;;;5104409;28;20050;-68
2022/09/12 05:21:17;;;;;;;12.23;5.57;;;16.60;99.90;;;;;;5084736;28;20044;-68
2022/09/12 05:23:44;;;;;;;7.27;5.87;;;16.60;99.90;;;;;;5083785;28;20419;-68
2022/09/12 05:26:12;;;;;;;77.97;67.32;;;16.60;99.90;;;;;;5096309;28;20880;-69
2022/09/12 05:28:42;;;;;;;11.90;10.52;;;16.60;99.90;;;;;;5092151;28;20077;-68
2022/09/12 05:31:10;;;;;;;11.30;7.03;;;16.70;99.90;;;;;;5094418;28;20063;-68
2022/09/12 05:33:38;;;;;;;10.07;6.90;;;16.70;99.90;;;;;;5093883;28;20070;-68
2022/09/12 05:36:07;;;;;;;6.63;5.55;;;16.70;99.90;;;;;;5077106;28;20381;-68
2022/09/12 05:38:34;;;;;;;8.30;5.80;;;16.70;99.90;;;;;;5086212;28;20047;-68
2022/09/12 05:41:09;;;;;;;8.75;5.60;;;16.70;99.90;;;;;;5092490;28;20036;-68
2022/09/12 05:43:44;;;;;;;7.65;6.07;;;16.70;99.90;;;;;;5092083;28;22304;-68
2022/09/12 05:46:12;;;;;;;8.85;5.85;;;16.70;99.90;;;;;;5105494;28;20043;-68
2022/09/12 05:48:41;;;;;;;9.82;5.57;;;16.80;99.90;;;;;;5099688;28;20044;-69
2022/09/12 05:51:10;;;;;;;7.97;5.67;;;16.80;99.90;;;;;;5100023;28;20051;-68
2022/09/12 05:53:37;;;;;;;6.32;4.80;;;16.80;99.90;;;;;;5107157;28;20040;-68
2022/09/12 05:56:08;;;;;;;9.38;5.78;;;16.80;99.90;;;;;;5091039;28;20063;-68
2022/09/12 05:58:36;;;;;;;7.07;4.75;;;16.80;99.90;;;;;;5096445;28;20039;-69
2022/09/12 06:01:14;;;;;;;8.75;4.53;;;16.90;99.90;;;;;;5092763;28;20475;-69
2022/09/12 06:03:45;;;;;;;6.90;4.55;;;16.90;99.90;;;;;;5094186;28;20047;-68
2022/09/12 06:06:13;;;;;;;14.05;5.55;;;16.90;99.90;;;;;;5103005;28;20043;-68
2022/09/12 06:08:41;;;;;;;7.95;4.65;;;16.90;99.90;;;;;;5094261;28;20040;-68
2022/09/12 06:11:13;;;;;;;115.50;103.10;;;17.00;99.90;;;;;;5105036;28;20046;-68
2022/09/12 06:13:41;;;;;;;66.07;57.40;;;17.00;99.90;;;;;;5091021;28;20486;-66
2022/09/12 06:16:19;;;;;;;16.48;14.02;;;17.10;99.90;;;;;;5090776;28;20044;-71
2022/09/12 06:18:52;;;;;;;11.10;8.43;;;17.10;99.90;;;;;;5080395;28;20501;-69
2022/09/12 06:21:20;;;;;;;9.80;5.78;;;17.20;99.90;;;;;;5101198;28;20147;-70
2022/09/12 06:23:47;;;;;;;9.32;4.97;;;17.20;99.90;;;;;;5098720;28;20475;-74
2022/09/12 06:26:15;;;;;;;6.78;4.25;;;17.20;99.90;;;;;;5111764;28;20088;-81
2022/09/12 06:28:46;;;;;;;7.22;5.13;;;17.30;99.90;;;;;;5090339;28;20052;-80
2022/09/12 06:31:32;;;;;;;7.10;4.10;;;17.30;99.90;;;;;;5094904;28;20048;-71
2022/09/12 06:34:22;;;;;;;277.95;248.45;;;17.40;99.90;;;;;;5090996;28;20050;-76
2022/09/12 06:37:00;;;;;;;63.05;56.60;;;17.50;99.90;;;;;;5064645;28;20047;-71
2022/09/12 06:39:37;;;;;;;19.13;15.30;;;17.60;99.90;;;;;;5089701;28;20372;-70
2022/09/12 06:42:07;;;;;;;12.30;9.40;;;17.70;99.90;;;;;;5096675;28;20040;-70
2022/09/12 06:44:34;;;;;;;10.32;5.55;;;17.80;99.90;;;;;;5112037;28;20048;-71
2022/09/12 06:47:01;;;;;;;5.97;4.22;;;17.90;99.90;;;;;;5083858;28;20097;-71
2022/09/12 06:49:28;;;;;;;7.47;4.05;;;18.10;99.90;;;;;;5098593;28;20468;-70
2022/09/12 06:51:55;;;;;;;12.30;6.72;;;18.20;99.90;;;;;;5103053;28;20036;-71
2022/09/12 06:54:22;;;;;;;7.80;5.85;;;18.30;99.90;;;;;;5112609;28;20102;-71
2022/09/12 06:56:49;;;;;;;6.20;4.70;;;18.40;99.90;;;;;;5095807;28;20139;-71
2022/09/12 06:59:16;;;;;;;9.20;3.25;;;18.50;99.90;;;;;;5105431;28;20039;-78
2022/09/12 07:01:43;;;;;;;4.90;2.88;;;18.60;99.90;;;;;;5089524;28;20041;-77
2022/09/12 07:04:10;;;;;;;10.52;3.70;;;18.70;99.90;;;;;;5101873;28;20449;-78
2022/09/12 07:06:39;;;;;;;4.90;3.30;;;18.70;99.90;;;;;;5101923;28;20390;-75
2022/09/12 07:09:08;;;;;;;8.02;3.03;;;18.80;99.90;;;;;;5107907;28;20043;-77
2022/09/12 07:11:36;;;;;;;;;;;18.80;99.90;;;;;;5105299;28;20039;-70
2022/09/12 07:14:03;;;;;;;5.43;2.88;;;18.90;99.90;;;;;;5106474;28;19932;-74
2022/09/12 07:16:31;;;;;;;3.88;2.40;;;18.90;99.90;;;;;;5089797;28;20043;-78
2022/09/12 07:19:01;;;;;;;8.05;3.60;;;19.00;99.90;;;;;;5114478;28;20417;-78
2022/09/12 07:21:28;;;;;;;4.72;2.65;;;19.00;99.90;;;;;;5102686;28;20040;-74
2022/09/12 07:23:57;;;;;;;4.22;2.70;;;19.00;99.90;;;;;;5100100;28;20035;-76
2022/09/12 07:26:25;;;;;;;5.90;4.10;;;19.10;99.90;;;;;;5092072;28;20493;-75
2022/09/12 07:28:53;;;;;;;6.32;3.65;;;19.10;99.90;;;;;;5104374;28;20096;-73
2022/09/12 07:31:22;;;;;;;7.60;4.38;;;19.20;99.90;;;;;;5087294;28;20051;-70
2022/09/12 07:33:49;;;;;;;142.70;128.18;;;19.30;99.90;;;;;;5112033;28;20104;-77
2022/09/12 07:36:22;;;;;;;14.25;12.57;;;19.40;99.90;;;;;;5094863;28;20502;-70
2022/09/12 07:38:53;;;;;;;6.10;4.82;;;19.40;99.90;;;;;;5101462;28;20040;-77
2022/09/12 07:41:27;;;;;;;5.65;3.72;;;19.40;99.90;;;;;;5097973;28;20044;-70
2022/09/12 07:43:56;;;;;;;5.63;2.72;;;19.50;99.90;;;;;;5109563;28;20096;-71
2022/09/12 07:46:23;;;;;;;5.90;2.90;;;19.50;99.90;;;;;;5096076;28;20043;-71
2022/09/12 07:48:51;;;;;;;5.38;3.05;;;19.60;99.90;;;;;;5103522;28;20047;-70
2022/09/12 07:51:18;;;;;;;4.63;2.25;;;19.70;99.90;;;;;;5094006;28;20091;-70
2022/09/12 07:53:45;;;;;;;4.90;2.33;;;19.70;99.90;;;;;;5107667;28;20040;-70
2022/09/12 07:56:13;;;;;;;7.45;3.40;;;19.70;99.90;;;;;;5113721;28;20134;-69
2022/09/12 07:58:40;;;;;;;3.53;2.55;;;19.70;99.90;;;;;;5098323;28;20429;-69
2022/09/12 08:01:09;;;;;;;9.23;3.17;;;19.80;99.90;;;;;;5076552;28;20048;-69
2022/09/12 08:03:37;;;;;;;5.18;2.60;;;19.90;99.90;;;;;;5083109;28;20043;-69
2022/09/12 08:06:04;;;;;;;5.22;2.50;;;19.90;99.90;;;;;;5098155;28;20043;-69
2022/09/12 08:08:31;;;;;;;6.38;2.60;;;20.00;99.90;;;;;;5105344;28;20051;-70
2022/09/12 08:10:59;;;;;;;5.00;2.50;;;20.10;99.90;;;;;;5094145;28;20047;-69
2022/09/12 08:13:29;;;;;;;3.63;2.10;;;20.30;99.90;;;;;;5094620;28;20127;-68
2022/09/12 08:16:00;;;;;;;7.38;4.15;;;20.40;99.90;;;;;;5101521;28;20391;-69
2022/09/12 08:18:28;;;;;;;7.70;3.08;;;20.50;99.90;;;;;;5081425;28;20127;-72
2022/09/12 08:20:59;;;;;;;4.18;2.15;;;20.50;99.90;;;;;;5092944;28;20044;-74
2022/09/12 08:23:27;;;;;;;4.05;2.28;;;20.60;99.90;;;;;;5077172;28;20366;-76
2022/09/12 08:25:56;;;;;;;4.65;3.40;;;20.70;99.90;;;;;;5089132;28;20039;-79
2022/09/12 08:28:23;;;;;;;;;;;20.60;99.90;;;;;;5097316;28;20098;-75
2022/09/12 08:30:51;;;;;;;3.90;2.80;;;20.70;99.90;;;;;;5098301;28;19923;-79
2022/09/12 08:33:19;;;;;;;6.45;2.40;;;20.70;99.90;;;;;;5110650;28;20040;-75
2022/09/12 08:35:46;;;;;;;4.07;1.98;;;20.70;99.90;;;;;;5078595;28;20429;-78
2022/09/12 08:38:13;;;;;;;5.80;2.25;;;20.70;99.90;;;;;;5109896;28;20101;-76
2022/09/12 08:40:49;;;;;;;3.47;2.17;;;20.70;99.90;;;;;;5119080;27;20541;-75
2022/09/12 08:43:36;;;;;;;5.25;2.17;;;20.70;99.90;;;;;;5083106;28;20048;-75
2022/09/12 08:46:09;;;;;;;6.18;2.13;;;20.80;99.90;;;;;;5098023;28;20051;-72
2022/09/12 08:48:37;;;;;;;4.00;1.90;;;20.90;99.90;;;;;;5107778;28;20040;-76
2022/09/12 08:51:04;;;;;;;3.42;1.80;;;21.00;99.90;;;;;;5083259;28;20044;-75
2022/09/12 08:53:31;;;;;;;5.63;2.10;;;21.20;99.90;;;;;;5082208;28;20093;-77
2022/09/12 08:55:58;;;;;;;3.88;2.20;;;21.30;99.90;;;;;;5093201;28;20476;-77
2022/09/12 08:58:27;;;;;;;3.28;1.85;;;21.50;99.90;;;;;;5094005;28;20052;-77
2022/09/12 09:01:01;;;;;;;4.88;1.90;;;21.60;99.90;;;;;;5092352;28;20328;-77
2022/09/12 09:03:34;;;;;;;6.72;1.70;;;21.60;99.90;;;;;;5093341;28;20072;-77
2022/09/12 09:06:25;;;;;;;4.22;1.80;;;21.70;99.90;;;;;;5092572;28;20074;-77
2022/09/12 09:09:07;;;;;;;2.50;1.88;;;21.90;99.90;;;;;;5082028;28;20051;-76
2022/09/12 09:11:44;;;;;;;8.80;2.83;;;21.90;99.90;;;;;;5093708;28;20044;-78
2022/09/12 09:16:59;;;;;;;3.30;1.80;;;22.00;99.90;;;;;;5096895;28;20051;-77
2022/09/12 09:19:33;;;;;;;5.50;2.05;;;22.00;99.90;;;;;;5091870;28;20154;-77
2022/09/12 09:22:03;;;;;;;5.63;2.20;;;22.10;99.90;;;;;;5075331;28;20039;-78
2022/09/12 09:24:42;;;;;;;5.90;3.00;;;22.00;99.90;;;;;;5091921;28;20097;-77
2022/09/12 09:27:19;;;;;;;5.60;1.95;;;22.00;99.90;;;;;;5079864;28;20044;-76
2022/09/12 09:30:15;;;;;;;3.45;1.63;;;22.00;99.90;;;;;;5082699;28;20441;-76
2022/09/12 09:32:42;;;;;;;4.53;1.80;;;22.00;99.90;;;;;;5097777;28;20146;-76
2022/09/12 09:35:38;;;;;;;3.88;1.73;;;22.10;99.90;;;;;;5080874;28;20048;-76
2022/09/12 09:38:35;;;;;;;3.13;1.70;;;22.20;99.90;;;;;;5097409;28;20112;-76
2022/09/12 09:41:49;;;;;;;2.40;1.60;;;22.40;99.90;;;;;;5091747;28;20044;-76
2022/09/12 09:44:16;;;;;;;2.08;1.70;;;22.50;99.90;;;;;;5060576;28;20461;-76
2022/09/12 09:46:43;;;;;;;3.92;2.40;;;22.60;99.90;;;;;;5091145;28;20399;-76
2022/09/12 09:49:12;;;;;;;6.50;2.90;;;22.80;99.90;;;;;;5093306;28;20043;-77
2022/09/12 09:51:39;;;;;;;9.13;3.60;;;22.90;99.90;;;;;;5074061;28;20062;-77
2022/09/12 09:54:56;;;;;;;7.95;3.00;;;22.90;99.90;;;;;;5092594;28;20085;-76
2022/09/12 09:57:37;;;;;;;6.05;2.85;;;22.90;99.90;;;;;;5088102;28;20043;-76
2022/09/12 10:00:29;;;;;;;4.70;2.42;;;23.00;99.90;;;;;;5075344;28;20044;-76
2022/09/12 10:03:08;;;;;;;3.33;2.20;;;22.90;99.90;;;;;;5091286;28;20044;-77
2022/09/12 10:05:51;;;;;;;5.20;2.40;;;22.90;99.90;;;;;;5092586;28;20460;-76
2022/09/12 10:08:22;;;;;;;;;;;22.90;99.90;;;;;;5092409;28;20050;-76
2022/09/12 10:11:19;;;;;;;2.78;1.92;;;22.80;99.90;;;;;;5085908;28;19995;-75
2022/09/12 10:13:53;;;;;;;3.00;1.92;;;22.80;99.90;;;;;;5103053;28;20054;-76
2022/09/12 10:16:46;;;;;;;6.50;2.08;;;22.80;99.90;;;;;;5094833;28;20058;-77
2022/09/12 10:19:36;;;;;;;3.78;2.33;;;22.90;99.90;;;;;;5102478;28;20052;-76
2022/09/12 10:22:04;;;;;;;3.83;2.15;;;22.90;99.90;;;;;;5107149;28;20119;-77
2022/09/12 10:24:51;;;;;;;5.20;2.60;;;22.80;99.90;;;;;;5111414;28;20072;-76
2022/09/12 10:27:23;;;;;;;4.82;2.25;;;22.90;99.90;;;;;;5078140;28;20089;-76
2022/09/12 10:29:59;;;;;;;4.15;2.75;;;23.00;99.90;;;;;;5110630;28;20047;-76
2022/09/12 10:32:30;;;;;;;4.28;3.30;;;23.10;99.90;;;;;;5101329;28;20127;-76
2022/09/12 10:35:01;;;;;;;6.85;3.78;;;23.20;99.90;;;;;;5103452;28;20448;-75
2022/09/12 10:37:41;;;;;;;4.90;3.83;;;23.30;99.90;;;;;;5073733;28;20052;-75
2022/09/12 10:40:23;;;;;;;5.90;2.97;;;23.50;99.90;;;;;;5074932;28;20052;-73
2022/09/12 10:42:58;;;;;;;6.07;3.25;;;23.60;99.90;;;;;;5091438;28;20046;-77
2022/09/12 10:45:34;;;;;;;5.90;2.78;;;23.70;99.90;;;;;;5075234;28;20039;-77
2022/09/12 10:48:04;;;;;;;5.70;4.50;;;23.80;99.90;;;;;;5096757;28;20043;-72
2022/09/12 10:50:43;;;;;;;9.18;3.63;;;23.90;99.90;;;;;;5074499;28;20054;-77
2022/09/12 10:53:31;;;;;;;7.85;3.33;;;24.00;99.90;;;;;;5102086;28;20044;-65
2022/09/12 10:56:10;;;;;;;5.40;3.00;;;24.10;99.90;;;;;;5102239;28;20050;-65
2022/09/12 10:59:05;;;;;;;7.82;2.53;;;24.20;99.90;;;;;;5093580;28;20042;-66
2022/09/12 11:01:43;;;;;;;6.93;2.35;;;24.30;99.90;;;;;;5092421;28;20040;-68
2022/09/12 11:04:22;;;;;;;3.58;2.22;;;24.40;99.90;;;;;;5088965;28;20052;-65
2022/09/12 11:06:55;;;;;;;;;;;24.50;99.90;;;;;;5106529;28;20035;-67
2022/09/12 11:09:37;;;;;;;5.13;3.17;;;24.50;99.90;;;;;;5097415;28;20370;-66
2022/09/12 11:12:23;;;;;;;5.78;2.80;;;24.50;99.90;;;;;;5106188;28;20050;-68
2022/09/12 11:15:12;;;;;;;4.57;3.08;;;24.50;99.90;;;;;;5106197;28;20097;-67
2022/09/12 11:17:54;;;;;;;5.50;2.85;;;24.60;99.90;;;;;;5112982;28;20040;-68
2022/09/12 11:20:39;;;;;;;5.20;2.97;;;24.70;99.90;;;;;;5097501;28;20474;-68
2022/09/12 11:23:25;;;;;;;4.03;2.72;;;24.80;99.90;;;;;;5107782;28;20046;-68
2022/09/12 11:26:28;;;;;;;3.45;2.40;;;24.90;99.90;;;;;;5106199;28;20052;-67
2022/09/12 11:29:02;;;;;;;5.18;2.58;;;24.90;99.90;;;;;;5068350;28;20468;-68
2022/09/12 11:31:47;;;;;;;6.88;2.33;;;24.90;99.90;;;;;;5093805;28;20051;-66
2022/09/12 11:34:22;;;;;;;4.15;2.50;;;24.90;99.90;;;;;;5103795;28;20044;-62
2022/09/12 11:37:17;;;;;;;5.45;2.20;;;25.00;99.90;;;;;;5093058;28;20054;-62
2022/09/12 11:39:44;;;;;;;4.68;1.70;;;25.10;99.90;;;;;;5100605;28;20044;-61
2022/09/12 11:42:19;;;;;;;3.37;1.50;;;25.20;99.90;;;;;;5113944;28;20042;-61
2022/09/12 11:44:48;;;;;;;3.20;1.60;;;25.20;99.90;;;;;;5103714;28;20040;-72
2022/09/12 11:47:17;;;;;;;2.63;1.65;;;25.30;99.90;;;;;;5100366;28;20093;-72
2022/09/12 11:49:49;;;;;;;72.68;65.28;;;25.30;99.90;;;;;;5104687;28;20468;-71
2022/09/12 11:52:19;;;;;;;8.20;5.60;;;25.40;99.90;;;;;;5090284;28;20996;-72
2022/09/12 11:55:15;;;;;;;7.07;2.85;;;25.50;99.90;;;;;;5084139;28;20044;-69
2022/09/12 11:57:53;;;;;;;9.07;2.78;;;25.50;99.90;;;;;;5080884;28;20089;-69
2022/09/12 12:00:25;;;;;;;3.85;1.60;;;25.70;99.90;;;;;;5092831;28;20467;-67
2022/09/12 12:03:16;;;;;;;5.05;1.75;;;25.80;99.90;;;;;;5106702;28;20098;-67
2022/09/12 12:06:10;;;;;;;2.78;1.55;;;25.80;99.90;;;;;;5109883;28;20115;-69
2022/09/12 12:08:39;;;;;;;5.15;1.95;;;25.70;99.90;;;;;;5095050;28;20036;-69
2022/09/12 12:11:09;;;;;;;7.50;1.75;;;25.60;99.90;;;;;;5096150;28;20039;-69
2022/09/12 12:13:54;;;;;;;7.50;2.35;;;25.50;99.90;;;;;;5093257;28;20044;-70
2022/09/12 12:16:26;;;;;;;3.90;1.50;;;25.40;99.90;;;;;;5078648;28;20032;-68
2022/09/12 12:19:00;;;;;;;4.30;1.45;;;25.30;99.90;;;;;;5095341;28;20048;-67
2022/09/12 12:21:40;;;;;;;5.00;1.50;;;25.30;99.90;;;;;;5074854;28;20051;-68
2022/09/12 12:24:07;;;;;;;4.25;1.80;;;25.40;99.90;;;;;;5091410;28;20651;-69
2022/09/12 12:26:39;;;;;;;2.88;1.63;;;25.50;99.90;;;;;;5092629;28;20043;-67
2022/09/12 12:29:16;;;;;;;3.80;1.80;;;25.60;99.90;;;;;;5101284;28;20403;-66
2022/09/12 12:32:16;;;;;;;4.63;3.45;;;25.70;99.90;;;;;;5092128;28;20044;-66
2022/09/12 12:34:44;;;;;;;4.32;2.38;;;25.70;99.90;;;;;;5083120;28;20044;-70
2022/09/12 12:37:26;;;;;;;4.18;1.90;;;25.60;99.90;;;;;;5095199;28;20044;-68
2022/09/12 12:40:03;;;;;;;5.88;2.28;;;25.60;99.90;;;;;;5099744;28;20416;-68
2022/09/12 12:42:29;;;;;;;3.15;1.45;;;25.50;99.90;;;;;;5113053;28;20054;-69
2022/09/12 12:44:57;;;;;;;3.50;1.73;;;25.50;99.90;;;;;;5113929;28;20043;-66
2022/09/12 12:47:40;;;;;;;2.08;1.30;;;25.50;99.90;;;;;;5095575;28;20420;-67
2022/09/12 12:50:20;;;;;;;3.53;1.52;;;25.50;99.90;;;;;;5093735;28;20040;-67
2022/09/12 12:52:56;;;;;;;2.65;1.48;;;25.50;99.90;;;;;;5092001;28;20443;-66
2022/09/12 12:55:28;;;;;;;11.60;2.97;;;25.50;99.90;;;;;;5092420;28;20035;-68
2022/09/12 12:57:55;;;;;;;4.88;1.95;;;25.50;99.90;;;;;;5080719;28;20040;-68
2022/09/12 13:00:27;;;;;;;4.90;1.75;;;25.60;99.90;;;;;;5060022;28;20044;-67
2022/09/12 13:03:05;;;;;;;4.25;1.70;;;25.70;99.90;;;;;;5092369;28;20048;-69
2022/09/12 13:05:50;;;;;;;5.15;1.70;;;25.80;99.90;;;;;;5096742;28;20063;-71
2022/09/12 13:08:17;;;;;;;3.58;1.38;;;26.00;99.90;;;;;;5092521;28;20036;-70
2022/09/12 13:11:08;;;;;;;1.85;1.10;;;26.00;99.90;;;;;;5097358;28;20036;-71
2022/09/12 13:13:37;;;;;;;2.85;1.23;;;26.10;99.90;;;;;;5095595;28;20040;-70
2022/09/12 13:16:04;;;;;;;4.50;1.80;;;26.00;99.90;;;;;;5108873;28;20040;-70
2022/09/12 13:18:45;;;;;;;1.85;1.13;;;26.00;99.90;;;;;;5107029;28;20483;-70